Notice: Undefined index: station in /home3/dimtiris/public_html/webApp/metar/index.php on line 4

Metar

Weather conditions for all airports of the world. Just type the ICAO code of an airport.

LGAV 010350Z 02017KT 9999 SCT025 13/05 Q1020 NOSIG

STATION LGAV
OBSERVED Fri Oct 31, 21:50 MDT
NOW Fri Oct 31, 22:24 MDT
AGE 34 min ago
WIND NNE at 20 mph
VISIBILITY 16 miles
CONDITIONS
CLOUDS scattered clouds
TEMP 55°F (13°C)
DEWPT 41°F (5°C)
HUMIDITY 59%
BAROMETER 1020 hPa (30.12 in Hg)

Get weather info from other station:

Some ICAO codes to try: